Airport View

Enter AWOS ICAO identifier for current METAR.

ex. KFNL

KPWA 212253Z 18014KT 10SM CLR 29/21 A2992 RMK AO2 SLP116 T02940211 $

21 Sep 2019 23:24

Phone: 405-798-2013

Other Area AWOS: KHSD - KOKC - KRCE - KTIK

KOKC 211723Z 2118/2218 19013G24KT P6SM BKN013 BKN100 OVC250 FM212100 18015G23KT P6SM BKN050 BKN150 FM220000 17012KT P6SM BKN030 OVC100 PROB30 2208/2212 2SM TSRA OVC025CB